createdAt,value
2018-02-20T00:01:34.107Z,53.33
2018-02-20T00:04:04.538Z,54.78
2018-02-20T00:06:35.022Z,57.92
2018-02-20T00:09:06.048Z,56.37
2018-02-20T00:11:36.668Z,49.10
2018-02-20T00:14:07.205Z,50.80
2018-02-20T00:16:37.838Z,53.17
2018-02-20T00:19:08.332Z,50.17
2018-02-20T00:21:38.824Z,60.12
2018-02-20T00:24:10.161Z,56.50
2018-02-20T00:26:40.617Z,57.78
2018-02-20T00:29:10.912Z,53.35
2018-02-20T00:31:41.656Z,64.28
2018-02-20T00:34:12.195Z,54.38
2018-02-20T00:36:44.033Z,57.73
2018-02-20T00:39:14.415Z,63.13
2018-02-20T00:41:45.054Z,53.40
2018-02-20T00:44:15.582Z,55.15
2018-02-20T00:46:47.033Z,46.20
2018-02-20T00:49:18.844Z,50.40
2018-02-20T00:51:50.819Z,49.97
2018-02-20T00:54:22.352Z,46.28
2018-02-20T00:56:53.038Z,49.53
2018-02-20T00:59:23.676Z,47.83
2018-02-20T01:01:54.144Z,50.50
2018-02-20T01:04:25.033Z,49.80
2018-02-20T01:06:55.402Z,56.40
2018-02-20T01:09:26.212Z,52.35
2018-02-20T01:11:56.502Z,58.50
2018-02-20T01:14:26.804Z,54.67
2018-02-20T01:16:57.662Z,53.17
2018-02-20T01:19:28.284Z,59.63
2018-02-20T01:21:58.604Z,56.37
2018-02-20T01:24:28.903Z,55.47
2018-02-20T01:26:59.447Z,63.50
2018-02-20T01:29:30.236Z,59.85
2018-02-20T01:32:01.134Z,55.88
2018-02-20T01:34:32.346Z,67.30
2018-02-20T01:37:02.868Z,63.72
2018-02-20T01:39:33.197Z,62.67
2018-02-20T01:42:04.400Z,61.47
2018-02-20T01:44:35.296Z,58.38
2018-02-20T01:47:06.209Z,62.67
2018-02-20T01:49:37.155Z,52.42
2018-02-20T01:52:07.489Z,57.40
2018-02-20T01:54:38.304Z,56.83
2018-02-20T01:57:09.050Z,59.70
2018-02-20T01:59:39.664Z,56.43
2018-02-20T02:02:10.855Z,54.55
2018-02-20T02:04:41.336Z,53.97
2018-02-20T02:07:11.577Z,59.72
2018-02-20T02:09:42.456Z,59.13
2018-02-20T02:12:13.222Z,60.40
2018-02-20T02:14:43.582Z,57.30
2018-02-20T02:17:14.244Z,55.65
2018-02-20T02:19:44.988Z,59.60
2018-02-20T02:22:18.199Z,61.80
2018-02-20T02:24:49.089Z,67.32
2018-02-20T02:27:19.894Z,69.73
2018-02-20T02:29:50.834Z,68.57
2018-02-20T02:32:21.657Z,73.07
2018-02-20T02:34:52.447Z,75.90
2018-02-20T02:37:23.512Z,82.73
2018-02-20T02:39:54.723Z,75.00
2018-02-20T02:42:25.936Z,74.57
2018-02-20T02:44:56.474Z,70.70
2018-02-20T02:47:27.304Z,69.45
2018-02-20T02:49:57.561Z,81.00
2018-02-20T02:52:27.641Z,78.57
2018-02-20T02:54:57.706Z,83.22
2018-02-20T02:57:28.286Z,83.62
2018-02-20T02:59:58.389Z,86.03
2018-02-20T03:02:29.255Z,75.17
2018-02-20T03:05:00.139Z,74.82
2018-02-20T03:07:31.334Z,89.75
2018-02-20T03:10:02.056Z,82.43
2018-02-20T03:12:32.793Z,86.72
2018-02-20T03:15:03.786Z,91.05
2018-02-20T03:17:35.247Z,84.72
2018-02-20T03:20:06.708Z,82.45
2018-02-20T03:22:37.498Z,91.93
2018-02-20T03:25:08.438Z,84.50
2018-02-20T03:27:39.383Z,75.80
2018-02-20T03:30:11.542Z,71.30
2018-02-20T03:32:42.753Z,66.60
2018-02-20T03:35:13.810Z,66.30
2018-02-20T03:37:45.991Z,69.40
2018-02-20T03:40:17.740Z,71.68
2018-02-20T03:42:49.342Z,73.90
2018-02-20T03:45:20.278Z,72.07
2018-02-20T03:47:51.396Z,67.13
2018-02-20T03:50:23.092Z,67.35
2018-02-20T03:52:54.282Z,65.20
2018-02-20T03:55:25.696Z,69.75
2018-02-20T03:57:57.021Z,67.12
2018-02-20T04:00:27.638Z,72.07
2018-02-20T04:02:58.305Z,77.80
2018-02-20T04:05:29.008Z,67.47
2018-02-20T04:07:59.782Z,65.80
2018-02-20T04:10:30.473Z,65.75
2018-02-20T04:13:00.759Z,65.43
2018-02-20T04:15:31.422Z,63.35
2018-02-20T04:18:02.122Z,68.50
2018-02-20T04:20:33.630Z,66.95
2018-02-20T04:23:03.985Z,76.57
2018-02-20T04:25:34.483Z,80.57
2018-02-20T04:28:05.732Z,79.30
2018-02-20T04:30:36.591Z,69.60
2018-02-20T04:33:07.445Z,76.85
2018-02-20T04:35:37.967Z,74.40
2018-02-20T04:38:08.671Z,81.05
2018-02-20T04:40:39.470Z,79.25
2018-02-20T04:43:09.873Z,63.03
2018-02-20T04:45:41.165Z,68.43
2018-02-20T04:48:12.579Z,72.00
2018-02-20T04:50:44.048Z,70.85
2018-02-20T04:53:15.407Z,80.10
2018-02-20T04:55:46.166Z,80.55
2018-02-20T04:58:16.886Z,83.32
2018-02-20T05:00:48.179Z,89.28
2018-02-20T05:03:18.458Z,82.70
2018-02-20T05:05:50.130Z,102.10
2018-02-20T05:08:20.459Z,106.85
2018-02-20T05:10:52.030Z,107.18
2018-02-20T05:13:23.084Z,106.60
2018-02-20T05:15:54.598Z,104.87
2018-02-20T05:18:25.876Z,107.07
2018-02-20T05:20:57.335Z,99.87
2018-02-20T05:23:29.991Z,87.12
2018-02-20T05:26:09.363Z,101.57
2018-02-20T05:28:42.261Z,95.97
2018-02-20T05:31:18.719Z,91.50
2018-02-20T05:33:51.036Z,93.40
2018-02-20T05:36:21.756Z,88.43
2018-02-20T05:38:52.438Z,90.18
2018-02-20T05:41:23.121Z,96.55
2018-02-20T05:43:57.460Z,90.65
2018-02-20T05:46:29.792Z,100.37
2018-02-20T05:49:08.134Z,94.80
2018-02-20T05:51:47.331Z,90.50
2018-02-20T05:54:19.958Z,84.45
2018-02-20T05:56:50.809Z,85.53
2018-02-20T05:59:22.318Z,84.40
2018-02-20T06:01:53.829Z,79.10
2018-02-20T06:04:26.571Z,86.03
2018-02-20T06:06:58.397Z,91.23
2018-02-20T06:09:30.209Z,110.40
2018-02-20T06:15:04.782Z,112.30
2018-02-20T06:17:37.087Z,98.72
2018-02-20T06:20:30.630Z,100.40
2018-02-20T06:23:02.462Z,83.97
2018-02-20T06:25:38.181Z,87.17
2018-02-20T06:28:13.226Z,103.97
2018-02-20T06:30:47.796Z,101.00
2018-02-20T06:33:19.225Z,93.30
2018-02-20T06:36:17.898Z,90.57
2018-02-20T06:38:50.008Z,98.20
2018-02-20T06:41:21.830Z,107.37
2018-02-20T06:44:04.396Z,109.68
2018-02-20T06:46:39.271Z,101.85
2018-02-20T06:49:11.693Z,94.00
2018-02-20T06:52:25.220Z,78.53
2018-02-20T06:55:00.520Z,85.90
2018-02-20T06:57:32.101Z,81.05
2018-02-20T07:00:05.645Z,82.28
2018-02-20T07:02:37.513Z,85.22
2018-02-20T07:05:12.830Z,92.00
2018-02-20T07:07:49.822Z,84.53
2018-02-20T07:10:22.094Z,89.15
2018-02-20T07:12:53.263Z,92.57
2018-02-20T07:15:24.812Z,111.10
2018-02-20T07:17:56.602Z,92.13
2018-02-20T07:20:30.320Z,92.75
2018-02-20T07:23:03.742Z,94.10
2018-02-20T07:25:34.591Z,86.18
2018-02-20T07:28:05.029Z,76.70
2018-02-20T07:30:42.855Z,76.97
2018-02-20T07:33:15.882Z,79.70
2018-02-20T07:35:54.058Z,84.03
2018-02-20T07:38:27.596Z,82.82
2018-02-20T07:41:00.681Z,73.70
2018-02-20T07:43:32.186Z,79.40
2018-02-20T07:46:04.118Z,77.50
2018-02-20T07:48:36.111Z,65.95
2018-02-20T07:51:08.998Z,73.53
2018-02-20T07:56:22.877Z,75.50
2018-02-20T07:58:54.287Z,77.25
2018-02-20T08:01:28.681Z,75.15
2018-02-20T08:04:00.624Z,66.70
2018-02-20T08:06:33.034Z,58.30
2018-02-20T08:09:03.847Z,70.37
2018-02-20T08:11:38.866Z,60.67
2018-02-20T08:14:09.552Z,57.80
2018-02-20T08:16:40.650Z,59.80
2018-02-20T08:19:12.676Z,63.87
2018-02-20T08:21:43.464Z,68.40
2018-02-20T08:24:14.572Z,67.10
2018-02-20T08:26:47.186Z,73.00
2018-02-20T08:29:20.678Z,57.95
2018-02-20T08:31:52.911Z,59.58
2018-02-20T08:34:26.142Z,57.13
2018-02-20T08:36:57.268Z,57.60
2018-02-20T08:39:30.630Z,56.90
2018-02-20T08:42:00.922Z,51.67
2018-02-20T08:44:41.347Z,50.28
2018-02-20T08:47:12.982Z,47.38
2018-02-20T08:49:47.734Z,44.42
2018-02-20T08:52:33.732Z,40.50
2018-02-20T08:55:04.722Z,43.63
2018-02-20T08:57:35.654Z,51.27
2018-02-20T09:00:06.532Z,44.60
2018-02-20T09:02:36.931Z,49.33
2018-02-20T09:05:09.001Z,48.58
2018-02-20T09:07:39.942Z,45.73
2018-02-20T09:10:11.570Z,50.08
2018-02-20T09:12:42.278Z,51.80
2018-02-20T09:15:13.274Z,47.10
2018-02-20T09:17:44.738Z,53.30
2018-02-20T09:20:15.531Z,50.17
2018-02-20T09:22:46.245Z,49.95
2018-02-20T09:25:35.073Z,48.87
2018-02-20T09:28:06.521Z,50.13
2018-02-20T09:30:41.394Z,46.27
2018-02-20T09:33:11.808Z,51.40
2018-02-20T09:35:42.829Z,50.85
2018-02-20T09:38:19.714Z,47.40
2018-02-20T09:40:50.612Z,42.00
2018-02-20T09:43:21.649Z,48.75
2018-02-20T09:45:54.553Z,46.10
2018-02-20T09:48:34.170Z,44.67
2018-02-20T09:51:05.613Z,46.03
2018-02-20T09:53:36.873Z,40.40
2018-02-20T09:56:08.422Z,38.97
2018-02-20T09:58:42.365Z,36.25
2018-02-20T10:01:14.896Z,44.17
2018-02-20T10:10:43.607Z,46.85
2018-02-20T10:13:17.925Z,49.95
2018-02-20T10:15:53.107Z,41.55
2018-02-20T10:18:24.962Z,47.78
2018-02-20T10:21:00.010Z,43.13
2018-02-20T10:23:34.981Z,41.20
2018-02-20T10:26:19.572Z,45.42
2018-02-20T10:28:51.269Z,45.08
2018-02-20T10:31:24.278Z,45.00
2018-02-20T10:33:56.250Z,41.83
2018-02-20T10:36:27.294Z,41.83
2018-02-20T10:38:57.986Z,35.90
2018-02-20T10:41:29.354Z,46.10
2018-02-20T10:43:59.702Z,41.78
2018-02-20T10:46:31.803Z,41.92
2018-02-20T10:49:03.462Z,48.70
2018-02-20T10:51:38.876Z,41.10
2018-02-20T10:54:14.476Z,42.10
2018-02-20T10:56:48.457Z,40.67
2018-02-20T10:59:19.326Z,38.33
2018-02-20T11:01:50.686Z,38.45
2018-02-20T11:04:22.133Z,39.83
2018-02-20T11:06:52.915Z,37.30
2018-02-20T11:09:24.282Z,34.35
2018-02-20T11:12:06.578Z,34.75
2018-02-20T11:14:39.509Z,33.17
2018-02-20T11:17:12.223Z,32.13
2018-02-20T11:19:46.194Z,28.60
2018-02-20T11:22:21.424Z,28.95
2018-02-20T11:25:13.550Z,27.77
2018-02-20T11:27:45.354Z,27.80
2018-02-20T11:30:16.562Z,29.52
2018-02-20T11:32:48.085Z,25.55
2018-02-20T11:35:19.302Z,25.65
2018-02-20T11:37:50.629Z,26.47
2018-02-20T11:40:22.282Z,28.20
2018-02-20T11:42:52.694Z,29.05
2018-02-20T11:45:27.652Z,29.23
2018-02-20T11:48:02.515Z,31.08
2018-02-20T11:50:36.292Z,28.08
2018-02-20T11:53:24.636Z,34.40
2018-02-20T11:56:19.595Z,34.85
2018-02-20T11:58:56.705Z,29.33
2018-02-20T12:01:28.199Z,33.08
2018-02-20T12:04:33.490Z,31.70
2018-02-20T12:07:07.935Z,33.53
2018-02-20T12:09:42.970Z,34.50
2018-02-20T12:12:19.419Z,33.72
2018-02-20T12:14:49.952Z,36.55
2018-02-20T12:17:24.414Z,37.92
2018-02-20T12:19:58.148Z,36.20
2018-02-20T12:22:37.085Z,38.08
2018-02-20T12:25:08.651Z,32.80
2018-02-20T12:27:39.737Z,41.30
2018-02-20T12:30:15.363Z,35.40
2018-02-20T12:32:47.744Z,43.13
2018-02-20T12:35:18.724Z,38.85
2018-02-20T12:38:04.639Z,41.13
2018-02-20T12:40:37.724Z,39.50
2018-02-20T12:46:18.587Z,40.70
2018-02-20T12:48:51.251Z,42.95
2018-02-20T12:54:06.561Z,41.85
2018-02-20T12:56:38.747Z,39.75
2018-02-20T12:59:10.343Z,41.53
2018-02-20T13:01:41.284Z,47.15
2018-02-20T13:04:12.173Z,45.20
2018-02-20T13:06:43.773Z,40.97
2018-02-20T13:09:15.065Z,43.97
2018-02-20T13:11:49.919Z,41.05
2018-02-20T13:14:20.637Z,41.92
2018-02-20T13:16:55.030Z,40.43
2018-02-20T13:19:26.439Z,39.20
2018-02-20T13:22:13.219Z,37.13
2018-02-20T13:24:49.956Z,36.80
2018-02-20T13:27:24.132Z,36.22
2018-02-20T13:30:01.729Z,38.03
2018-02-20T13:32:37.777Z,35.53
2018-02-20T13:35:09.448Z,38.08
2018-02-20T13:37:41.425Z,38.35
2018-02-20T13:40:12.204Z,36.38
2018-02-20T13:42:43.862Z,38.45
2018-02-20T13:45:15.832Z,36.85
2018-02-20T13:47:47.580Z,33.33
2018-02-20T13:50:19.494Z,32.10
2018-02-20T13:52:57.331Z,32.03
2018-02-20T13:55:28.024Z,32.60
2018-02-20T13:58:01.721Z,31.30
2018-02-20T14:00:33.263Z,33.35
2018-02-20T14:03:05.765Z,31.02
2018-02-20T14:05:38.312Z,38.15
2018-02-20T14:08:11.135Z,32.07
2018-02-20T14:10:50.208Z,36.15
2018-02-20T14:13:44.538Z,37.65
2018-02-20T14:16:15.021Z,36.80
2018-02-20T14:18:45.579Z,36.83
2018-02-20T14:21:16.295Z,32.30
2018-02-20T14:23:48.816Z,34.33
2018-02-20T14:26:20.327Z,33.88
2018-02-20T14:28:57.712Z,35.27
2018-02-20T14:31:30.581Z,37.40
2018-02-20T14:34:44.532Z,34.60
2018-02-20T14:37:18.479Z,34.80
2018-02-20T14:39:50.220Z,40.60
2018-02-20T14:42:38.929Z,38.22
2018-02-20T14:45:14.482Z,39.78
2018-02-20T14:47:48.899Z,38.42
2018-02-20T14:50:28.770Z,32.97
2018-02-20T14:53:00.974Z,39.80
2018-02-20T14:55:32.264Z,41.30
2018-02-20T14:58:04.006Z,41.72
2018-02-20T15:00:41.580Z,44.67
2018-02-20T15:03:16.006Z,45.30
2018-02-20T15:05:53.983Z,45.30
2018-02-20T15:08:25.751Z,46.35
2018-02-20T15:10:58.986Z,45.22
2018-02-20T15:14:21.671Z,44.95
2018-02-20T15:17:15.926Z,41.17
2018-02-20T15:20:13.208Z,41.03
2018-02-20T15:22:46.123Z,43.90
2018-02-20T15:25:21.512Z,43.63
2018-02-20T15:27:59.108Z,44.90
2018-02-20T15:30:40.723Z,47.92
2018-02-20T15:33:17.840Z,50.30
2018-02-20T15:36:19.976Z,49.93
2018-02-20T15:38:52.121Z,48.75
2018-02-20T15:41:26.051Z,48.80
2018-02-20T15:43:59.816Z,47.62
2018-02-20T15:46:31.546Z,48.90
2018-02-20T15:49:28.699Z,49.15
2018-02-20T15:52:21.174Z,52.17
2018-02-20T15:55:24.967Z,54.47
2018-02-20T15:57:59.163Z,51.08
2018-02-20T16:00:37.323Z,53.22
2018-02-20T16:03:11.675Z,55.70
2018-02-20T16:05:49.977Z,54.05
2018-02-20T16:08:39.307Z,47.95
2018-02-20T16:13:52.316Z,58.70
2018-02-20T16:16:24.321Z,56.58
2018-02-20T16:18:56.066Z,55.17
2018-02-20T16:21:30.962Z,57.17
2018-02-20T16:28:07.033Z,54.30
2018-02-20T16:30:41.638Z,54.50
2018-02-20T16:33:41.433Z,56.95
2018-02-20T16:36:13.486Z,57.23
2018-02-20T16:38:47.365Z,64.03
2018-02-20T16:41:19.312Z,55.37
2018-02-20T16:44:19.540Z,54.88
2018-02-20T16:50:31.429Z,62.42
2018-02-20T17:03:52.616Z,65.45
2018-02-20T17:06:25.103Z,66.25
2018-02-20T17:08:56.430Z,68.40
2018-02-20T17:12:11.235Z,61.13
2018-02-20T17:14:43.765Z,63.42
2018-02-20T17:21:07.023Z,65.43
2018-02-20T17:23:43.697Z,61.22
2018-02-20T17:26:21.422Z,62.47
2018-02-20T17:28:54.535Z,69.07
2018-02-20T17:31:26.040Z,66.18
2018-02-20T17:34:04.646Z,65.37
2018-02-20T17:36:37.408Z,68.18
2018-02-20T17:39:09.161Z,69.28
2018-02-20T17:41:40.832Z,67.60
2018-02-20T17:44:11.115Z,66.20
2018-02-20T17:46:41.538Z,66.10
2018-02-20T17:49:12.364Z,74.05
2018-02-20T17:51:42.832Z,71.25
2018-02-20T17:54:13.494Z,69.82
2018-02-20T17:56:46.390Z,74.20
2018-02-20T17:59:33.181Z,67.18
2018-02-20T18:02:03.749Z,73.55
2018-02-20T18:04:34.918Z,71.10
2018-02-20T18:07:06.777Z,70.83
2018-02-20T18:09:38.971Z,83.45
2018-02-20T18:12:11.654Z,80.07
2018-02-20T18:14:42.982Z,75.78
2018-02-20T18:17:19.036Z,73.82
2018-02-20T18:19:59.869Z,77.32
2018-02-20T18:22:31.169Z,78.68
2018-02-20T18:25:03.102Z,74.70
2018-02-20T18:27:34.419Z,74.03
2018-02-20T18:30:05.639Z,73.73
2018-02-20T18:32:37.487Z,81.05
2018-02-20T18:35:09.433Z,79.70
2018-02-20T18:37:45.455Z,76.55
2018-02-20T18:40:19.025Z,76.03
2018-02-20T18:42:50.719Z,81.53
2018-02-20T18:45:22.430Z,78.30
2018-02-20T18:47:56.043Z,79.28
2018-02-20T18:50:29.470Z,78.10
2018-02-20T18:53:31.352Z,77.00
2018-02-20T18:56:04.662Z,80.32
2018-02-20T18:59:15.415Z,85.62
2018-02-20T19:01:51.830Z,77.07
2018-02-20T19:04:40.694Z,72.55
2018-02-20T19:10:50.161Z,76.83
2018-02-20T19:13:21.940Z,84.80
2018-02-20T19:15:53.956Z,82.28
2018-02-20T19:18:25.299Z,88.45
2018-02-20T19:20:56.638Z,88.43
2018-02-20T19:23:30.331Z,79.03
2018-02-20T19:26:03.789Z,78.53
2018-02-20T19:28:35.590Z,84.55
2018-02-20T19:31:09.299Z,80.30
2018-02-20T19:33:41.276Z,80.87
2018-02-20T19:36:11.983Z,80.70
2018-02-20T19:38:44.118Z,77.20
2018-02-20T19:41:17.339Z,78.20
2018-02-20T19:43:52.123Z,77.82
2018-02-20T19:46:26.641Z,79.45
2018-02-20T19:49:00.917Z,79.87
2018-02-20T19:51:36.804Z,77.78
2018-02-20T19:54:15.154Z,76.25
2018-02-20T19:56:49.231Z,77.05
2018-02-20T19:59:34.102Z,81.53
2018-02-20T20:02:06.575Z,76.45
2018-02-20T20:04:40.294Z,78.55
2018-02-20T20:07:19.397Z,82.65
2018-02-20T20:09:53.279Z,76.18
2018-02-20T20:12:34.467Z,75.50
2018-02-20T20:15:09.092Z,81.75
2018-02-20T20:20:56.546Z,82.35
2018-02-20T20:23:28.084Z,79.07
2018-02-20T20:26:01.674Z,78.40
2018-02-20T20:28:36.077Z,80.28
2018-02-20T20:31:12.084Z,81.45
2018-02-20T20:33:48.848Z,68.85
2018-02-20T20:36:23.946Z,71.78
2018-02-20T20:38:56.877Z,74.60
2018-02-20T20:41:29.199Z,77.50
2018-02-20T20:44:06.818Z,75.35
2018-02-20T20:46:55.578Z,77.22
2018-02-20T20:49:30.061Z,81.65
2018-02-20T20:52:02.066Z,82.97
2018-02-20T20:54:33.610Z,87.50
2018-02-20T20:57:06.299Z,86.60
2018-02-20T20:59:39.800Z,82.97
2018-02-20T21:02:12.890Z,81.82
2018-02-20T21:04:45.112Z,90.12
2018-02-20T21:07:20.895Z,94.18
2018-02-20T21:09:51.953Z,84.47
2018-02-20T21:12:23.285Z,81.65
2018-02-20T21:14:55.170Z,82.65
2018-02-20T21:17:27.454Z,86.00
2018-02-20T21:20:02.229Z,84.97
2018-02-20T21:22:34.523Z,81.45
2018-02-20T21:25:08.990Z,79.70
2018-02-20T21:27:40.772Z,79.57
2018-02-20T21:30:12.827Z,80.60
2018-02-20T21:32:45.144Z,78.65
2018-02-20T21:35:18.796Z,83.93
2018-02-20T21:37:50.231Z,81.22
2018-02-20T21:40:20.559Z,83.37
2018-02-20T21:42:51.329Z,83.12
2018-02-20T21:45:22.784Z,92.03
2018-02-20T21:47:55.198Z,90.85
2018-02-20T21:50:27.637Z,81.75
2018-02-20T21:52:59.824Z,83.50
2018-02-20T21:55:30.651Z,83.15
2018-02-20T21:58:01.674Z,85.43
2018-02-20T22:00:32.191Z,88.05
2018-02-20T22:03:02.507Z,87.35
2018-02-20T22:05:33.396Z,87.97
2018-02-20T22:08:04.167Z,87.47
2018-02-20T22:10:34.907Z,83.25
2018-02-20T22:13:05.507Z,90.65
2018-02-20T22:15:36.287Z,87.00
2018-02-20T22:18:06.558Z,82.82
2018-02-20T22:20:37.593Z,88.43
2018-02-20T22:23:08.811Z,82.00
2018-02-20T22:25:40.330Z,78.05
2018-02-20T22:28:10.612Z,81.63
2018-02-20T22:30:42.135Z,77.25
2018-02-20T22:33:12.909Z,80.68
2018-02-20T22:35:44.429Z,77.30
2018-02-20T22:38:15.681Z,73.97
2018-02-20T22:40:46.635Z,78.97
2018-02-20T22:43:17.381Z,76.97
2018-02-20T22:45:48.443Z,80.90
2018-02-20T22:48:19.183Z,72.18
2018-02-20T22:50:49.469Z,75.50
2018-02-20T22:53:20.405Z,83.70
2018-02-20T22:55:51.463Z,74.67
2018-02-20T22:58:22.505Z,68.65
2018-02-20T23:00:54.127Z,77.95
2018-02-20T23:03:24.982Z,78.57
2018-02-20T23:05:57.054Z,78.87
2018-02-20T23:08:27.629Z,81.05
2018-02-20T23:10:58.420Z,79.25
2018-02-20T23:13:30.060Z,85.25
2018-02-20T23:16:08.071Z,81.18
2018-02-20T23:18:38.992Z,82.85
2018-02-20T23:21:09.267Z,79.43
2018-02-20T23:23:41.142Z,89.53
2018-02-20T23:26:11.827Z,82.93
2018-02-20T23:28:42.530Z,84.18
2018-02-20T23:31:13.136Z,81.80
2018-02-20T23:33:44.233Z,82.80
2018-02-20T23:36:15.453Z,84.20
2018-02-20T23:38:46.758Z,84.25
2018-02-20T23:41:20.509Z,84.78
2018-02-20T23:43:52.330Z,88.30
2018-02-20T23:46:23.024Z,86.13
2018-02-20T23:48:53.275Z,79.15
2018-02-20T23:51:28.702Z,85.73
2018-02-20T23:53:59.710Z,77.33
2018-02-20T23:56:30.367Z,77.87
2018-02-20T23:59:00.763Z,81.00
